createdAt,value
2024-04-08T11:24:59.135Z,27.05
2024-04-08T11:27:27.004Z,27.70
2024-04-08T11:29:57.563Z,32.00
2024-04-08T11:32:25.476Z,29.40
2024-04-08T11:34:55.788Z,35.67
2024-04-08T11:37:23.307Z,27.80
2024-04-08T11:39:53.562Z,26.73
2024-04-08T11:42:23.902Z,21.05
2024-04-08T11:45:05.623Z,19.08
2024-04-08T11:47:35.426Z,15.88
2024-04-08T11:50:05.839Z,20.13
2024-04-08T11:52:34.744Z,17.00
2024-04-08T11:55:06.003Z,17.58
2024-04-08T11:57:36.593Z,14.75
2024-04-08T12:00:08.249Z,14.15
2024-04-08T12:02:36.210Z,14.02
2024-04-08T12:05:06.954Z,12.60
2024-04-08T12:07:34.486Z,10.38
2024-04-08T12:10:05.078Z,10.02
2024-04-08T12:12:32.664Z,8.68
2024-04-08T12:15:06.473Z,7.82
2024-04-08T12:17:34.418Z,6.93
2024-04-08T12:20:05.786Z,5.53
2024-04-08T12:22:33.301Z,4.43
2024-04-08T12:25:04.457Z,4.07
2024-04-08T12:27:32.031Z,3.25
2024-04-08T12:30:04.973Z,3.25
2024-04-08T12:32:35.217Z,3.30
2024-04-08T12:35:02.769Z,3.38
2024-04-08T12:37:32.942Z,3.22
2024-04-08T12:40:00.638Z,3.42
2024-04-08T12:42:30.770Z,2.65
2024-04-08T12:45:11.674Z,3.03
2024-04-08T12:47:45.529Z,2.80
2024-04-08T12:50:13.170Z,2.92
2024-04-08T12:52:47.274Z,3.03
2024-04-08T12:55:15.116Z,2.90
2024-04-08T12:57:45.558Z,2.85
2024-04-08T13:00:15.948Z,2.88
2024-04-08T13:03:05.673Z,3.42
2024-04-08T13:05:33.523Z,3.03
2024-04-08T13:08:15.174Z,2.92
2024-04-08T13:10:43.010Z,3.22
2024-04-08T13:13:13.448Z,3.28
2024-04-08T13:15:43.656Z,3.35
2024-04-08T13:18:13.975Z,2.70
2024-04-08T13:20:41.677Z,2.85
2024-04-08T13:23:12.069Z,2.50
2024-04-08T13:25:43.801Z,3.13
2024-04-08T13:28:17.393Z,2.88
2024-04-08T13:30:47.738Z,3.15
2024-04-08T13:33:18.158Z,2.45
2024-04-08T13:35:46.358Z,2.70
2024-04-08T13:38:16.695Z,2.80
2024-04-08T13:40:44.332Z,2.70
2024-04-08T13:43:26.896Z,2.70
2024-04-08T13:46:00.486Z,2.80
2024-04-08T13:48:28.597Z,2.50
2024-04-08T13:50:59.389Z,3.30
2024-04-08T13:53:27.323Z,2.38
2024-04-08T13:56:01.169Z,2.67
2024-04-08T13:58:29.246Z,2.05
2024-04-08T14:01:05.537Z,2.30
2024-04-08T14:03:34.677Z,1.80
2024-04-08T14:06:05.038Z,1.80
2024-04-08T14:08:32.746Z,1.80
2024-04-08T14:11:03.916Z,2.03
2024-04-08T14:13:34.374Z,1.92
2024-04-08T14:16:05.375Z,1.90
2024-04-08T14:18:35.774Z,1.63
2024-04-08T14:21:03.877Z,1.60
2024-04-08T14:23:34.994Z,1.63
2024-04-08T14:26:02.609Z,1.90
2024-04-08T14:28:32.848Z,2.00
2024-04-08T14:31:00.519Z,2.30
2024-04-08T14:33:33.606Z,1.95
2024-04-08T14:36:01.400Z,2.03
2024-04-08T14:38:47.671Z,1.92
2024-04-08T14:41:22.025Z,2.00
2024-04-08T14:43:59.790Z,1.85
2024-04-08T14:46:34.235Z,1.88
2024-04-08T14:49:04.676Z,1.98
2024-04-08T14:51:40.025Z,1.90
2024-04-08T14:54:09.516Z,1.60
2024-04-08T14:56:40.588Z,1.55
2024-04-08T14:59:08.705Z,1.58
2024-04-08T15:01:38.941Z,1.60
2024-04-08T15:04:10.414Z,1.80
2024-04-08T15:06:40.859Z,1.75
2024-04-08T15:09:09.460Z,1.83
2024-04-08T15:11:39.922Z,1.85
2024-04-08T15:14:08.627Z,1.50
2024-04-08T15:16:38.800Z,1.50
2024-04-08T15:19:10.175Z,1.63
2024-04-08T15:21:40.587Z,1.75
2024-04-08T15:24:10.533Z,1.70
2024-04-08T15:26:41.574Z,1.63
2024-04-08T15:29:09.113Z,2.05
2024-04-08T15:31:39.600Z,1.80
2024-04-08T15:34:10.010Z,2.40
2024-04-08T15:36:40.263Z,1.63
2024-04-08T15:39:09.187Z,2.00
2024-04-08T15:41:40.646Z,2.17
2024-04-08T15:44:08.948Z,2.03
2024-04-08T15:46:39.410Z,1.98
2024-04-08T15:49:12.261Z,2.42
2024-04-08T15:51:42.556Z,2.50
2024-04-08T15:54:27.339Z,2.20
2024-04-08T15:56:55.498Z,2.20
2024-04-08T15:59:26.065Z,2.58
2024-04-08T16:01:53.563Z,2.97
2024-04-08T16:04:28.075Z,2.97
2024-04-08T16:06:56.065Z,2.72
2024-04-08T16:09:26.977Z,2.78
2024-04-08T16:11:58.004Z,2.70
2024-04-08T16:14:25.542Z,3.22
2024-04-08T16:16:55.809Z,3.15
2024-04-08T16:19:26.240Z,2.83
2024-04-08T16:21:56.642Z,2.90
2024-04-08T16:24:24.395Z,2.92
2024-04-08T16:26:54.670Z,3.03
2024-04-08T16:29:22.924Z,2.90
2024-04-08T16:31:53.704Z,2.65
2024-04-08T16:34:21.765Z,2.90
2024-04-08T16:36:54.972Z,2.60
2024-04-08T16:39:22.463Z,2.80
2024-04-08T16:41:54.399Z,2.90
2024-04-08T16:44:22.003Z,2.78
2024-04-08T16:46:54.356Z,2.35
2024-04-08T16:49:23.714Z,3.00
2024-04-08T16:51:56.547Z,3.00
2024-04-08T16:54:24.491Z,3.13
2024-04-08T16:56:54.910Z,2.80
2024-04-08T16:59:22.501Z,2.72
2024-04-08T17:01:52.634Z,3.00
2024-04-08T17:04:20.266Z,2.60
2024-04-08T17:06:52.364Z,2.78
2024-04-08T17:09:26.383Z,2.20
2024-04-08T17:12:00.746Z,2.70
2024-04-08T17:14:28.470Z,2.65
2024-04-08T17:16:59.917Z,2.63
2024-04-08T17:19:27.830Z,2.38
2024-04-08T17:21:58.180Z,2.40
2024-04-08T17:24:28.472Z,2.40
2024-04-08T17:26:58.867Z,2.30
2024-04-08T17:29:26.595Z,2.33
2024-04-08T17:31:56.779Z,2.55
2024-04-08T17:34:24.366Z,2.55
2024-04-08T17:36:54.513Z,2.40
2024-04-08T17:39:22.075Z,2.60
2024-04-08T17:41:54.887Z,2.90
2024-04-08T17:44:22.468Z,3.08
2024-04-08T17:46:52.700Z,2.80
2024-04-08T17:49:20.357Z,2.80
2024-04-08T17:51:52.265Z,2.70
2024-04-08T17:54:20.105Z,2.67
2024-04-08T17:56:50.435Z,2.60
2024-04-08T17:59:20.941Z,2.90
2024-04-08T18:01:51.720Z,3.05
2024-04-08T18:04:20.000Z,3.20
2024-04-08T18:06:52.335Z,2.90
2024-04-08T18:09:20.056Z,2.90
2024-04-08T18:11:54.177Z,3.00
2024-04-08T18:14:32.368Z,3.38
2024-04-08T18:16:59.973Z,3.10
2024-04-08T18:19:32.043Z,2.90
2024-04-08T18:21:59.492Z,3.53
2024-04-08T18:24:29.913Z,3.20
2024-04-08T18:26:58.363Z,3.30
2024-04-08T18:29:31.263Z,2.90
2024-04-08T18:32:09.931Z,3.95
2024-04-08T18:34:40.162Z,3.30
2024-04-08T18:37:07.797Z,2.83
2024-04-08T18:39:38.147Z,3.08
2024-04-08T18:42:08.621Z,3.22
2024-04-08T18:44:38.888Z,3.33
2024-04-08T18:47:09.335Z,3.97
2024-04-08T18:49:39.650Z,3.50
2024-04-08T18:52:07.689Z,3.70
2024-04-08T18:54:41.612Z,3.40
2024-04-08T18:57:10.289Z,3.95
2024-04-08T18:59:40.648Z,3.90
2024-04-08T19:02:11.118Z,4.22
2024-04-08T19:04:41.829Z,5.50
2024-04-08T19:07:09.524Z,5.35
2024-04-08T19:09:39.762Z,5.32
2024-04-08T19:12:07.889Z,5.43
2024-04-08T19:14:38.164Z,5.93
2024-04-08T19:17:05.948Z,5.72
2024-04-08T19:19:39.231Z,6.72
2024-04-08T19:22:06.735Z,7.13
2024-04-08T19:24:37.086Z,7.55
2024-04-08T19:27:05.090Z,8.25
2024-04-08T19:29:35.398Z,9.50
2024-04-08T19:32:03.034Z,9.55
2024-04-08T19:34:33.358Z,10.63
2024-04-08T19:37:03.704Z,12.65
2024-04-08T19:39:34.032Z,15.25
2024-04-08T19:42:01.959Z,17.30
2024-04-08T19:44:32.332Z,27.05
2024-04-08T19:47:00.572Z,30.63
2024-04-08T19:49:31.495Z,28.42
2024-04-08T19:52:03.657Z,33.50
2024-04-08T19:54:34.504Z,34.65
2024-04-08T19:57:02.428Z,42.10
2024-04-08T19:59:32.835Z,47.85
2024-04-08T20:02:00.486Z,49.28
2024-04-08T20:04:31.111Z,49.60
2024-04-08T20:06:58.748Z,50.60
2024-04-08T20:09:31.992Z,54.15
2024-04-08T20:12:01.395Z,55.60
2024-04-08T20:14:31.753Z,55.15
2024-04-08T20:16:59.569Z,54.88
2024-04-08T20:19:31.859Z,55.97
2024-04-08T20:21:59.441Z,56.28
2024-04-08T20:24:32.498Z,56.05
2024-04-08T20:27:00.238Z,55.35
2024-04-08T20:29:30.622Z,56.03
2024-04-08T20:31:58.417Z,56.22
2024-04-08T20:34:28.996Z,56.42
2024-04-08T20:36:56.947Z,56.60
2024-04-08T20:39:28.125Z,56.13
2024-04-08T20:41:58.339Z,55.85
2024-04-08T20:44:28.868Z,55.00
2024-04-08T20:46:59.884Z,56.70
2024-04-08T20:49:30.139Z,55.72
2024-04-08T20:51:58.523Z,55.80
2024-04-08T20:54:29.222Z,58.25
2024-04-08T20:57:00.053Z,59.10
2024-04-08T20:59:33.327Z,57.58
2024-04-08T21:02:00.860Z,56.85
2024-04-08T21:04:31.549Z,55.92
2024-04-08T21:07:02.443Z,57.50
2024-04-08T21:09:30.725Z,57.78
2024-04-08T21:12:04.621Z,59.78
2024-04-08T21:14:32.474Z,59.85
2024-04-08T21:17:03.280Z,59.42
2024-04-08T21:19:31.941Z,61.28
2024-04-08T21:22:02.208Z,60.63
2024-04-08T21:24:30.938Z,59.90
2024-04-08T21:27:03.915Z,62.17
2024-04-08T21:29:31.548Z,61.08
2024-04-08T21:32:01.768Z,60.97
2024-04-08T21:34:29.635Z,62.95
2024-04-08T21:37:00.228Z,63.03
2024-04-08T21:39:27.879Z,58.22
2024-04-08T21:41:58.192Z,58.00
2024-04-08T21:44:28.440Z,55.63
2024-04-08T21:46:58.576Z,58.20
2024-04-08T21:49:26.276Z,61.20
2024-04-08T21:51:56.473Z,60.20
2024-04-08T21:54:24.119Z,59.00
2024-04-08T21:56:54.455Z,58.55
2024-04-08T21:59:22.003Z,59.47
2024-04-08T22:01:54.990Z,61.90
2024-04-08T22:04:22.683Z,65.05
2024-04-08T22:06:52.936Z,53.53
2024-04-08T22:09:20.462Z,51.90
2024-04-08T22:11:50.660Z,52.25
2024-04-08T22:14:18.215Z,51.88
2024-04-08T22:16:48.411Z,53.95
2024-04-08T22:19:18.735Z,53.08
2024-04-08T22:21:48.926Z,52.53
2024-04-08T22:24:16.539Z,51.80
2024-04-08T22:26:48.258Z,50.75
2024-04-08T22:29:15.837Z,52.13
2024-04-08T22:31:46.098Z,51.65
2024-04-08T22:34:13.807Z,52.53
2024-04-08T22:36:46.936Z,51.55
2024-04-08T22:39:14.481Z,50.17
2024-04-08T22:41:52.236Z,51.83
2024-04-08T22:44:21.720Z,51.75
2024-04-08T22:46:51.928Z,51.67
2024-04-08T22:49:21.097Z,52.55
2024-04-08T22:51:53.971Z,50.50
2024-04-08T22:54:21.508Z,51.22
2024-04-08T22:56:51.799Z,51.70
2024-04-08T22:59:19.530Z,51.83
2024-04-08T23:01:49.879Z,50.60
2024-04-08T23:04:17.889Z,47.55
2024-04-08T23:06:48.355Z,48.80
2024-04-08T23:09:18.568Z,48.40
2024-04-08T23:11:48.715Z,49.28
2024-04-08T23:14:16.275Z,50.05
2024-04-08T23:16:46.475Z,46.63
2024-04-08T23:19:14.212Z,50.28
2024-04-08T23:21:44.577Z,50.35
2024-04-08T23:24:12.181Z,49.45
2024-04-08T23:26:45.121Z,46.00
2024-04-08T23:29:12.684Z,47.63
2024-04-08T23:31:44.991Z,48.53
2024-04-08T23:34:13.138Z,47.17
2024-04-08T23:36:43.431Z,47.22
2024-04-08T23:39:12.307Z,45.80
2024-04-08T23:41:45.362Z,45.28
2024-04-08T23:44:12.929Z,44.85
2024-04-08T23:46:43.358Z,43.50
2024-04-08T23:49:11.311Z,44.17
2024-04-08T23:51:42.558Z,43.05
2024-04-08T23:54:10.764Z,44.45
2024-04-08T23:56:41.362Z,46.25
2024-04-08T23:59:11.788Z,46.35
